Time;durP1;ratioP1;P1;durP2;ratioP2;P2;SDS_P1;SDS_P2;PMS_P1;PMS_P2;Temp;Humidity;BMP_temperature;BMP_pressure;BME280_temperature;BME280_humidity;BME280_pressure;Samples;Min_cycle;Max_cycle;Signal;HPM_P1;HPM_P2
2023/09/27 00:00:09;;;;;;;391.10;321.67;;;;;;;21.09;69.94;99854.34;309859;31;2839;-78
2023/09/27 00:00:19;;;;;;;391.75;316.42;;;;;;;21.09;70.02;99858.81;308423;31;3027;-78
2023/09/27 00:00:30;;;;;;;389.47;316.43;;;;;;;21.10;69.80;99849.88;306552;31;3563;-78
2023/09/27 00:00:42;;;;;;;396.58;327.35;;;;;;;21.10;70.02;99856.03;301738;32;1272;-78
2023/09/27 00:00:52;;;;;;;392.90;321.77;;;;;;;21.12;69.71;99853.25;300156;32;3986;-78
2023/09/27 00:01:02;;;;;;;392.73;320.05;;;;;;;21.08;70.16;99847.34;299717;32;4574;-78
2023/09/27 00:01:13;;;;;;;391.17;318.03;;;;;;;21.06;69.94;99853.75;301221;32;806;-78
2023/09/27 00:01:24;;;;;;;394.92;324.00;;;;;;;21.02;70.02;99853.16;298093;32;4955;-78
2023/09/27 00:01:34;;;;;;;396.45;326.50;;;;;;;21.03;70.31;99848.66;296759;32;4112;-78
2023/09/27 00:01:45;;;;;;;395.30;328.17;;;;;;;21.05;70.44;99857.38;295681;32;4638;-78
2023/09/27 00:01:55;;;;;;;391.25;321.00;;;;;;;21.03;69.89;99854.84;297911;33;842;-78
2023/09/27 00:02:05;;;;;;;388.40;312.73;;;;;;;21.04;70.35;99851.22;297289;33;3436;-78
2023/09/27 00:02:16;;;;;;;390.92;311.55;;;;;;;21.05;70.08;99852.91;298109;32;2965;-78
2023/09/27 00:02:27;;;;;;;393.63;311.83;;;;;;;21.04;70.59;99853.88;296517;33;1243;-78
2023/09/27 00:02:41;;;;;;;395.17;316.35;;;;;;;21.04;70.10;99850.38;296809;33;4365;-78
2023/09/27 00:02:52;;;;;;;393.70;313.38;;;;;;;21.05;70.10;99849.41;296926;32;5381;-77
2023/09/27 00:03:04;;;;;;;391.05;310.35;;;;;;;21.07;70.21;99850.13;294031;33;7112;-77
2023/09/27 00:03:14;;;;;;;390.50;311.40;;;;;;;21.06;70.12;99848.44;293960;33;1431;-77
2023/09/27 00:03:24;;;;;;;388.03;313.00;;;;;;;21.05;69.90;99846.72;296097;33;938;-77
2023/09/27 00:03:35;;;;;;;386.05;311.67;;;;;;;21.07;70.04;99852.78;294009;33;12293;-77
2023/09/27 00:03:47;;;;;;;386.83;311.03;;;;;;;21.07;70.05;99845.63;293083;33;4743;-77
2023/09/27 00:03:57;;;;;;;383.45;306.60;;;;;;;21.09;70.38;99853.50;292999;33;916;-77
2023/09/27 00:04:08;;;;;;;385.10;311.83;;;;;;;21.07;70.04;99850.13;290941;33;5988;-77
2023/09/27 00:04:19;;;;;;;385.98;316.23;;;;;;;21.06;70.23;99849.28;287951;34;4525;-77
2023/09/27 00:04:29;;;;;;;389.17;322.40;;;;;;;21.07;70.41;99850.97;288249;34;1272;-77
2023/09/27 00:04:39;;;;;;;390.90;321.40;;;;;;;21.07;70.21;99842.13;280080;35;1346;-78
2023/09/27 00:04:51;;;;;;;389.08;316.23;;;;;;;21.07;70.00;99850.97;282499;34;6933;-78
2023/09/27 00:05:06;;;;;;;392.92;315.98;;;;;;;21.07;69.69;99844.78;282878;34;7972;-78
2023/09/27 00:05:17;;;;;;;393.45;318.60;;;;;;;21.06;70.05;99845.75;279242;35;10281;-77
2023/09/27 00:05:28;;;;;;;391.42;311.85;;;;;;;21.04;70.03;99845.88;278876;35;3294;-77
2023/09/27 00:05:39;;;;;;;391.53;316.80;;;;;;;21.06;69.74;99848.44;276164;35;16280;-78
2023/09/27 00:07:52;;;;;;;373.68;296.54;;;;;;;21.05;69.87;99850.25;2494558;27;20266;-78
2023/09/27 00:08:09;;;;;;;382.77;319.83;;;;;;;21.06;69.96;99846.59;353028;28;892;-78
2023/09/27 00:08:20;;;;;;;389.23;316.15;;;;;;;21.04;69.71;99853.03;351523;28;5827;-78
2023/09/27 00:08:31;;;;;;;389.58;313.48;;;;;;;21.01;70.12;99845.28;348757;28;1338;-78
2023/09/27 00:08:41;;;;;;;389.03;321.13;;;;;;;21.02;69.81;99846.97;348592;28;1298;-78
2023/09/27 00:08:52;;;;;;;388.63;323.95;;;;;;;21.00;69.60;99848.91;348652;28;1425;-78
2023/09/27 00:09:03;;;;;;;388.97;326.27;;;;;;;21.01;69.83;99845.28;347855;28;1671;-78
2023/09/27 00:09:14;;;;;;;390.40;326.27;;;;;;;21.02;70.06;99852.31;347137;28;1416;-78
2023/09/27 00:09:25;;;;;;;390.58;326.25;;;;;;;21.02;70.10;99852.31;346476;28;1286;-78
2023/09/27 00:09:36;;;;;;;388.80;323.02;;;;;;;21.00;69.65;99851.56;350272;28;1320;-78
2023/09/27 00:09:46;;;;;;;386.17;317.67;;;;;;;20.97;69.77;99844.69;348953;28;964;-78
2023/09/27 00:09:57;;;;;;;386.27;321.10;;;;;;;20.97;70.06;99849.16;350102;28;1273;-78
2023/09/27 00:10:09;;;;;;;388.67;327.87;;;;;;;20.98;69.93;99850.84;349609;28;1351;-78
2023/09/27 00:10:19;;;;;;;389.52;329.98;;;;;;;20.96;69.89;99847.47;346197;28;961;-77
2023/09/27 00:10:30;;;;;;;387.87;325.90;;;;;;;20.95;69.60;99843.97;348164;28;1324;-77
2023/09/27 00:10:41;;;;;;;387.35;323.85;;;;;;;20.93;69.53;99849.41;349026;28;1397;-77
2023/09/27 00:10:51;;;;;;;384.27;318.67;;;;;;;20.93;70.03;99853.88;347376;28;1358;-78
2023/09/27 00:11:02;;;;;;;383.03;316.00;;;;;;;20.91;69.67;99846.03;349009;28;1194;-78
2023/09/27 00:11:13;;;;;;;387.95;318.63;;;;;;;20.90;70.06;99844.31;348071;28;1495;-78
2023/09/27 00:11:24;;;;;;;388.45;316.35;;;;;;;20.89;69.96;99855.94;350091;28;1372;-78
2023/09/27 00:11:34;;;;;;;390.33;316.15;;;;;;;20.87;69.86;99843.72;350272;28;1006;-78
2023/09/27 00:11:45;;;;;;;390.50;315.80;;;;;;;20.88;70.09;99851.59;350177;28;992;-78
2023/09/27 00:11:57;;;;;;;393.48;322.60;;;;;;;20.89;69.80;99857.75;345283;28;1343;-78
2023/09/27 00:12:09;;;;;;;391.67;318.33;;;;;;;20.89;70.25;99853.28;346182;28;944;-78
2023/09/27 00:12:20;;;;;;;391.15;312.55;;;;;;;20.89;70.01;99847.94;345039;28;961;-78
2023/09/27 00:12:31;;;;;;;390.17;309.63;;;;;;;20.88;69.93;99846.25;345505;28;903;-78
2023/09/27 00:12:42;;;;;;;392.67;314.90;;;;;;;20.92;69.79;99846.88;346477;28;1297;-78
2023/09/27 00:12:52;;;;;;;393.23;310.13;;;;;;;20.91;69.56;99851.34;345826;28;1405;-78
2023/09/27 00:13:03;;;;;;;393.35;308.38;;;;;;;20.92;69.38;99852.19;344725;28;1304;-78
2023/09/27 00:13:13;;;;;;;391.30;307.23;;;;;;;20.90;69.69;99849.66;343653;28;1236;-78
2023/09/27 00:13:24;;;;;;;389.27;307.17;;;;;;;20.89;69.62;99850.63;342131;28;1348;-77
2023/09/27 00:13:34;;;;;;;391.47;314.90;;;;;;;20.89;70.07;99852.44;342285;28;1274;-77
2023/09/27 00:13:44;;;;;;;394.40;315.73;;;;;;;20.88;69.81;99851.59;341832;28;1298;-77
2023/09/27 00:13:55;;;;;;;394.70;316.67;;;;;;;20.89;69.79;99847.94;341931;28;1328;-78
2023/09/27 00:14:05;;;;;;;394.77;314.23;;;;;;;20.91;69.80;99846.03;340555;28;1246;-78
2023/09/27 00:14:16;;;;;;;391.95;315.27;;;;;;;20.93;70.02;99852.06;340762;28;1220;-78
2023/09/27 00:14:27;;;;;;;397.17;311.27;;;;;;;20.93;69.76;99845.91;343371;28;1147;-78
2023/09/27 00:14:37;;;;;;;395.50;309.42;;;;;;;20.93;69.97;99846.75;340082;29;2445;-78
2023/09/27 00:14:48;;;;;;;394.33;310.20;;;;;;;20.91;70.03;99846.03;337136;29;5144;-78
2023/09/27 00:15:00;;;;;;;391.27;318.33;;;;;;;20.87;70.11;99847.22;338976;29;3411;-78
2023/09/27 00:15:11;;;;;;;391.88;317.77;;;;;;;20.89;69.83;99850.63;338018;29;1334;-78
2023/09/27 00:15:22;;;;;;;391.17;312.63;;;;;;;20.88;69.74;99851.59;333417;29;1434;-77
2023/09/27 00:15:33;;;;;;;390.55;307.88;;;;;;;20.86;69.98;99848.19;339789;29;1591;-78
2023/09/27 00:15:43;;;;;;;393.67;311.05;;;;;;;20.89;70.41;99847.94;340006;28;1328;-78
2023/09/27 00:15:54;;;;;;;397.63;310.00;;;;;;;20.87;70.16;99847.22;335494;29;1406;-78
2023/09/27 00:16:04;;;;;;;400.58;307.58;;;;;;;20.87;69.85;99844.56;341629;28;1216;-78
2023/09/27 00:16:14;;;;;;;398.13;310.60;;;;;;;20.85;69.98;99846.50;340138;29;1311;-78
2023/09/27 00:16:25;;;;;;;396.30;315.50;;;;;;;20.84;70.18;99844.81;335642;29;1274;-77
2023/09/27 00:16:35;;;;;;;396.83;321.10;;;;;;;20.82;70.39;99844.09;331794;29;1683;-77
2023/09/27 00:16:46;;;;;;;391.87;313.90;;;;;;;20.81;70.15;99855.69;333545;29;1982;-77
2023/09/27 00:16:58;;;;;;;387.52;309.52;;;;;;;20.79;70.40;99847.03;334349;29;1041;-77
2023/09/27 00:17:08;;;;;;;384.55;306.25;;;;;;;20.80;70.39;99854.00;335719;29;1541;-78
2023/09/27 00:17:18;;;;;;;385.80;307.03;;;;;;;20.79;70.53;99847.03;336494;29;1210;-78
2023/09/27 00:17:29;;;;;;;388.50;308.73;;;;;;;20.78;70.38;99845.31;334528;29;1512;-78
2023/09/27 00:17:40;;;;;;;391.85;316.05;;;;;;;20.79;70.61;99847.03;338093;29;1234;-78
2023/09/27 00:17:50;;;;;;;394.13;314.52;;;;;;;20.77;70.43;99842.78;334145;29;1741;-78
2023/09/27 00:18:01;;;;;;;389.17;310.95;;;;;;;20.76;70.14;99847.25;332619;29;1866;-78
2023/09/27 00:18:11;;;;;;;389.00;306.00;;;;;;;20.76;70.60;99847.25;330913;29;1527;-78
2023/09/27 00:18:22;;;;;;;387.88;309.02;;;;;;;20.77;70.30;99842.78;324425;30;1239;-78
2023/09/27 00:18:33;;;;;;;388.75;309.10;;;;;;;20.78;70.54;99847.97;325630;30;1403;-78
2023/09/27 00:18:45;;;;;;;392.20;318.03;;;;;;;20.75;70.33;99850.88;327224;30;1756;-78
2023/09/27 00:18:55;;;;;;;396.40;320.50;;;;;;;20.76;70.33;99846.41;327925;30;1513;-78
2023/09/27 00:19:06;;;;;;;395.45;326.38;;;;;;;20.75;70.33;99845.56;325361;30;1664;-78
2023/09/27 00:19:16;;;;;;;392.77;317.60;;;;;;;20.74;70.48;99849.19;327457;30;1187;-78
2023/09/27 00:19:26;;;;;;;386.53;311.73;;;;;;;20.74;70.39;99851.00;326845;30;1119;-78
2023/09/27 00:19:37;;;;;;;386.63;313.25;;;;;;;20.73;70.39;99844.84;326615;30;1464;-78
2023/09/27 00:19:47;;;;;;;386.47;314.17;;;;;;;20.71;70.33;99845.94;322779;30;2051;-78
2023/09/27 00:19:58;;;;;;;389.67;316.05;;;;;;;20.70;70.59;99847.75;319616;30;2459;-78
2023/09/27 00:20:12;;;;;;;386.37;304.37;;;;;;;20.67;70.81;99845.31;320918;30;1402;-78
2023/09/27 00:20:23;;;;;;;384.48;305.23;;;;;;;20.66;70.74;99848.09;317512;31;894;-78
2023/09/27 00:20:33;;;;;;;383.53;308.20;;;;;;;20.64;71.09;99848.22;319249;30;2145;-78
2023/09/27 00:20:43;;;;;;;382.02;306.70;;;;;;;20.62;70.89;99844.84;319049;30;2269;-78
2023/09/27 00:20:54;;;;;;;385.23;310.13;;;;;;;20.64;70.74;99853.53;316149;31;1331;-78
2023/09/27 00:21:05;;;;;;;385.40;305.77;;;;;;;20.63;70.78;99851.84;314813;31;2400;-78
2023/09/27 00:21:15;;;;;;;385.52;306.17;;;;;;;20.62;70.63;99844.84;318144;30;1787;-78
2023/09/27 00:21:25;;;;;;;384.35;302.25;;;;;;;20.60;70.80;99844.09;318571;31;1243;-78
2023/09/27 00:21:36;;;;;;;386.53;310.10;;;;;;;20.60;71.05;99844.09;312188;31;1317;-78
2023/09/27 00:21:46;;;;;;;385.75;307.88;;;;;;;20.62;71.03;99844.00;312462;31;2091;-78
2023/09/27 00:21:57;;;;;;;383.70;303.33;;;;;;;20.60;70.94;99846.78;311233;31;2488;-78
2023/09/27 00:22:09;;;;;;;386.70;296.33;;;;;;;20.58;71.09;99851.34;310710;31;1206;-78
2023/09/27 00:22:20;;;;;;;387.50;300.70;;;;;;;20.59;70.73;99845.06;310089;31;3416;-78
2023/09/27 00:22:30;;;;;;;387.02;298.92;;;;;;;20.59;70.83;99845.91;310158;31;3379;-78
2023/09/27 00:22:44;;;;;;;384.87;299.67;;;;;;;20.60;70.98;99844.09;310724;31;1404;-78
2023/09/27 00:22:55;;;;;;;382.88;298.02;;;;;;;20.57;70.85;99837.22;306342;32;852;-78
2023/09/27 00:23:07;;;;;;;381.90;300.90;;;;;;;20.58;70.99;99843.38;304693;32;3116;-78
2023/09/27 00:23:18;;;;;;;382.65;298.30;;;;;;;20.59;71.04;99845.06;305770;32;3230;-78
2023/09/27 00:23:28;;;;;;;384.13;304.38;;;;;;;20.59;70.88;99845.06;305128;32;2307;-78
2023/09/27 00:23:38;;;;;;;383.60;305.00;;;;;;;20.59;70.53;99842.41;304288;32;1251;-78
2023/09/27 00:23:49;;;;;;;384.85;305.92;;;;;;;20.59;70.37;99845.91;301851;32;2078;-77
2023/09/27 00:23:59;;;;;;;384.13;302.83;;;;;;;20.60;70.80;99841.44;299814;32;2903;-77
2023/09/27 00:24:10;;;;;;;382.13;299.70;;;;;;;20.59;70.41;99848.59;297328;33;3242;-77
2023/09/27 00:24:20;;;;;;;382.90;297.88;;;;;;;20.61;70.50;99848.47;297353;32;3671;-77
2023/09/27 00:24:30;;;;;;;385.77;298.77;;;;;;;20.59;70.28;99839.75;296866;32;5184;-77
2023/09/27 00:24:41;;;;;;;384.63;296.27;;;;;;;20.59;70.14;99840.59;293563;33;5160;-77
2023/09/27 00:24:51;;;;;;;384.83;297.40;;;;;;;20.59;70.28;99847.72;294169;33;1380;-77
2023/09/27 00:25:04;;;;;;;382.30;296.70;;;;;;;20.60;70.02;99841.44;294317;33;4171;-77
2023/09/27 00:25:14;;;;;;;382.75;293.75;;;;;;;20.58;70.32;99843.38;294445;33;4131;-77
2023/09/27 00:25:25;;;;;;;381.17;293.90;;;;;;;20.59;69.95;99845.06;296113;33;941;-77
2023/09/27 00:25:35;;;;;;;383.47;297.73;;;;;;;20.60;70.26;99846.78;295366;33;4237;-77
2023/09/27 00:25:46;;;;;;;382.70;298.58;;;;;;;20.60;70.22;99841.44;291632;33;3396;-77
2023/09/27 00:25:56;;;;;;;381.63;294.30;;;;;;;20.62;69.86;99842.19;289874;33;3151;-77
2023/09/27 00:26:06;;;;;;;382.05;294.60;;;;;;;20.64;70.27;99842.06;290192;34;903;-77
2023/09/27 00:26:17;;;;;;;384.83;299.10;;;;;;;20.65;70.03;99841.94;288622;34;3836;-77
2023/09/27 00:26:27;;;;;;;387.63;301.97;;;;;;;20.65;70.04;99839.28;287704;33;5475;-77
2023/09/27 00:26:38;;;;;;;384.88;298.08;;;;;;;20.65;70.16;99847.25;289245;34;745;-77
2023/09/27 00:26:48;;;;;;;384.10;298.67;;;;;;;20.65;69.98;99835.78;285675;34;7317;-77
2023/09/27 00:26:59;;;;;;;383.38;304.33;;;;;;;20.65;70.34;99844.59;283077;34;7501;-76
2023/09/27 00:27:10;;;;;;;384.10;305.73;;;;;;;20.66;69.73;99843.63;281765;35;1228;-77
2023/09/27 00:27:21;;;;;;;381.15;299.50;;;;;;;20.65;69.95;99844.59;278725;35;6197;-77
2023/09/27 00:27:32;;;;;;;383.10;294.48;;;;;;;20.66;70.13;99837.47;274915;35;6343;-77
2023/09/27 00:27:43;;;;;;;385.80;294.65;;;;;;;20.67;69.84;99842.66;271951;36;6505;-77
2023/09/27 00:27:53;;;;;;;387.35;295.52;;;;;;;20.67;70.29;99845.31;272140;36;1288;-77
2023/09/27 00:28:04;;;;;;;381.47;289.77;;;;;;;20.68;69.84;99833.72;269318;36;4865;-77
2023/09/27 00:28:14;;;;;;;382.60;294.70;;;;;;;20.68;69.75;99839.03;270947;36;5074;-77
2023/09/27 00:28:25;;;;;;;383.67;302.67;;;;;;;20.68;70.04;99839.03;274812;36;844;-77
2023/09/27 00:28:35;;;;;;;383.67;309.83;;;;;;;20.67;69.91;99837.34;272429;36;6790;-77
2023/09/27 00:28:46;;;;;;;384.53;311.97;;;;;;;20.65;70.00;99836.63;267978;36;7681;-77
2023/09/27 00:28:56;;;;;;;382.27;304.38;;;;;;;20.64;70.01;99836.75;265733;36;9487;-77
2023/09/27 00:29:06;;;;;;;381.60;298.53;;;;;;;20.62;70.26;99839.53;268208;36;1291;-77
2023/09/27 00:29:17;;;;;;;379.33;295.73;;;;;;;20.61;70.32;99836.97;263510;37;12222;-77
2023/09/27 00:31:48;;;;;;;365.09;269.36;;;;;;;20.51;70.52;99837.69;2491489;27;20346;-77
2023/09/27 00:31:59;;;;;;;389.27;289.60;;;;;;;20.55;70.88;99838.31;351477;28;1485;-77
2023/09/27 00:32:09;;;;;;;383.20;299.03;;;;;;;20.55;70.42;99836.50;350713;28;958;-77
2023/09/27 00:32:20;;;;;;;382.08;295.42;;;;;;;20.56;70.64;99840.00;348411;28;1205;-78
2023/09/27 00:32:30;;;;;;;389.23;293.57;;;;;;;20.56;70.25;99837.34;347786;28;1276;-77
2023/09/27 00:32:42;;;;;;;385.17;284.73;;;;;;;20.53;70.59;99834.91;348766;28;1332;-77
2023/09/27 00:32:53;;;;;;;389.20;296.67;;;;;;;20.54;70.36;99839.28;350221;28;816;-77
2023/09/27 00:33:04;;;;;;;383.67;300.27;;;;;;;20.53;70.53;99837.56;350235;28;1346;-77
2023/09/27 00:33:14;;;;;;;384.45;298.63;;;;;;;20.50;70.29;99836.00;344817;28;3250;-77
2023/09/27 00:33:25;;;;;;;378.83;292.73;;;;;;;20.49;70.42;99836.97;350322;28;5114;-77
2023/09/27 00:33:35;;;;;;;378.70;289.45;;;;;;;20.50;70.36;99835.16;350173;28;3257;-77
2023/09/27 00:33:46;;;;;;;382.57;290.53;;;;;;;20.50;70.55;99836.00;346069;28;3238;-77
2023/09/27 00:33:56;;;;;;;383.95;292.05;;;;;;;20.49;70.66;99831.66;348419;28;1356;-77
2023/09/27 00:34:06;;;;;;;384.33;294.53;;;;;;;20.49;70.72;99836.97;344725;28;1306;-77
2023/09/27 00:34:17;;;;;;;380.67;291.15;;;;;;;20.46;70.59;99829.22;344693;28;1331;-77
2023/09/27 00:34:27;;;;;;;380.03;289.77;;;;;;;20.45;70.80;99834.66;347017;28;1175;-77
2023/09/27 00:34:38;;;;;;;378.57;286.10;;;;;;;20.44;71.02;99836.47;344703;28;1453;-77
2023/09/27 00:34:48;;;;;;;377.27;285.33;;;;;;;20.44;70.90;99827.66;346212;28;974;-77
2023/09/27 00:34:59;;;;;;;376.17;287.20;;;;;;;20.43;71.05;99833.94;347236;28;1232;-78
2023/09/27 00:35:14;;;;;;;378.55;295.73;;;;;;;20.44;71.09;99831.16;344824;28;1234;-77
2023/09/27 00:35:24;;;;;;;377.65;290.10;;;;;;;20.46;70.73;99831.03;345898;28;1343;-77
2023/09/27 00:35:35;;;;;;;378.30;284.77;;;;;;;20.48;70.71;99829.09;345964;28;1232;-77
2023/09/27 00:35:49;;;;;;;379.67;282.50;;;;;;;20.48;70.87;99835.28;347305;28;1421;-77
2023/09/27 00:35:59;;;;;;;380.05;284.48;;;;;;;20.48;70.79;99832.63;343603;28;1351;-77
2023/09/27 00:36:09;;;;;;;378.43;288.87;;;;;;;20.50;70.93;99837.81;344197;28;1087;-77
2023/09/27 00:36:20;;;;;;;379.23;290.33;;;;;;;20.50;71.01;99835.16;339499;29;1359;-77
2023/09/27 00:36:30;;;;;;;379.57;292.33;;;;;;;20.49;71.12;99839.63;342451;28;1221;-77
2023/09/27 00:36:41;;;;;;;376.80;286.98;;;;;;;20.50;70.97;99835.16;344145;28;1163;-77
2023/09/27 00:36:51;;;;;;;376.93;287.53;;;;;;;20.52;70.54;99835.88;344762;28;964;-77
2023/09/27 00:37:02;;;;;;;377.20;287.33;;;;;;;20.52;70.74;99833.22;343504;28;1046;-77
2023/09/27 00:37:12;;;;;;;379.67;295.38;;;;;;;20.51;70.71;99828.88;343910;28;1549;-77
2023/09/27 00:37:24;;;;;;;381.63;298.93;;;;;;;20.50;70.62;99832.50;343988;28;841;-77
2023/09/27 00:37:35;;;;;;;380.88;296.92;;;;;;;20.50;70.61;99835.16;347556;28;1304;-77
2023/09/27 00:37:47;;;;;;;379.95;293.45;;;;;;;20.51;70.98;99840.34;340835;28;1219;-77
2023/09/27 00:37:58;;;;;;;378.52;291.50;;;;;;;20.48;70.93;99831.78;342016;28;1098;-77
2023/09/27 00:38:10;;;;;;;383.83;292.35;;;;;;;20.49;70.85;99828.16;341889;28;1307;-77
2023/09/27 00:38:20;;;;;;;386.42;294.23;;;;;;;20.47;70.66;99830.06;339478;29;1179;-77
2023/09/27 00:38:31;;;;;;;386.10;291.10;;;;;;;20.45;71.08;99826.69;339887;29;1182;-77
2023/09/27 00:38:41;;;;;;;383.92;291.20;;;;;;;20.46;70.87;99831.88;342041;28;1406;-77
2023/09/27 00:38:52;;;;;;;381.83;289.40;;;;;;;20.45;71.00;99826.69;340784;29;912;-77
2023/09/27 00:39:03;;;;;;;380.02;289.45;;;;;;;20.42;71.23;99829.59;339649;29;1237;-78
2023/09/27 00:39:13;;;;;;;376.30;287.38;;;;;;;20.41;70.80;99825.22;340479;29;956;-78
2023/09/27 00:39:24;;;;;;;376.60;287.80;;;;;;;20.41;71.34;99835.88;337274;29;1377;-78
2023/09/27 00:39:39;;;;;;;378.00;286.08;;;;;;;20.39;71.46;99833.34;338288;29;813;-78
2023/09/27 00:39:49;;;;;;;379.20;286.35;;;;;;;20.39;71.22;99824.50;335710;29;818;-78
2023/09/27 00:39:59;;;;;;;378.00;286.90;;;;;;;20.37;71.62;99829.06;339235;29;1962;-77
2023/09/27 00:40:12;;;;;;;380.05;293.15;;;;;;;20.36;71.21;99830.88;339061;29;1516;-77
2023/09/27 00:40:25;;;;;;;380.30;295.67;;;;;;;20.38;71.12;99833.44;338917;29;5388;-77
2023/09/27 00:40:37;;;;;;;381.92;298.85;;;;;;;20.38;71.27;99822.81;333046;29;1146;-77
2023/09/27 00:40:47;;;;;;;382.42;300.85;;;;;;;20.37;71.49;99829.91;333611;29;1546;-77
2023/09/27 00:40:58;;;;;;;384.98;301.20;;;;;;;20.37;71.35;99829.06;333699;29;941;-77
2023/09/27 00:41:08;;;;;;;387.33;304.60;;;;;;;20.37;71.65;99821.09;332794;29;1561;-77
2023/09/27 00:41:20;;;;;;;386.13;296.93;;;;;;;20.35;71.35;99829.22;331865;29;814;-77
2023/09/27 00:41:30;;;;;;;384.27;299.27;;;;;;;20.33;71.58;99832.97;331578;29;954;-77
2023/09/27 00:41:41;;;;;;;380.88;291.35;;;;;;;20.35;71.83;99825.72;330677;29;1441;-77
2023/09/27 00:41:51;;;;;;;381.97;295.23;;;;;;;20.34;71.91;99829.34;327381;30;1300;-77
2023/09/27 00:42:01;;;;;;;381.83;293.43;;;;;;;20.31;71.92;99826.91;327742;30;2173;-77
2023/09/27 00:42:12;;;;;;;382.40;293.38;;;;;;;20.32;71.64;99825.94;325114;30;2283;-77
2023/09/27 00:42:23;;;;;;;378.95;284.10;;;;;;;20.33;71.62;99830.31;323847;30;2968;-77
2023/09/27 00:42:34;;;;;;;380.67;283.33;;;;;;;20.33;71.94;99827.63;324274;30;2458;-77
2023/09/27 00:42:45;;;;;;;380.23;284.50;;;;;;;20.33;71.89;99822.31;323230;30;3059;-78
2023/09/27 00:42:55;;;;;;;385.02;293.25;;;;;;;20.32;72.06;99825.94;319258;30;1588;-78
2023/09/27 00:43:05;;;;;;;385.02;297.08;;;;;;;20.33;71.75;99822.31;318622;31;1024;-78
2023/09/27 00:43:28;;;;;;;386.70;302.73;;;;;;;20.32;72.05;99820.63;320740;30;893;-77
2023/09/27 00:43:39;;;;;;;378.92;292.38;;;;;;;20.31;72.33;99824.25;317707;30;1981;-77
2023/09/27 00:43:49;;;;;;;378.80;291.38;;;;;;;20.30;71.70;99825.22;317293;31;1345;-78
2023/09/27 00:44:00;;;;;;;381.07;290.57;;;;;;;20.32;71.88;99823.28;315138;31;2243;-78
2023/09/27 00:44:10;;;;;;;380.77;289.48;;;;;;;20.31;72.07;99821.59;315928;30;2657;-78
2023/09/27 00:44:21;;;;;;;382.30;292.47;;;;;;;20.29;71.89;99824.38;314280;31;1051;-78
2023/09/27 00:44:31;;;;;;;382.02;295.77;;;;;;;20.27;72.45;99819.16;313229;31;2678;-77
2023/09/27 00:44:43;;;;;;;381.30;295.67;;;;;;;20.26;72.34;99821.94;311838;31;2459;-77
2023/09/27 00:44:54;;;;;;;377.15;289.38;;;;;;;20.26;72.15;99825.44;311087;31;2559;-77
2023/09/27 00:45:06;;;;;;;378.20;289.02;;;;;;;20.26;72.18;99821.94;312808;31;1452;-77
2023/09/27 00:45:19;;;;;;;378.63;286.17;;;;;;;20.28;72.08;99825.34;313634;31;1996;-77
2023/09/27 00:45:29;;;;;;;380.30;282.88;;;;;;;20.29;71.94;99823.53;311225;31;5472;-77
2023/09/27 00:45:40;;;;;;;382.60;286.23;;;;;;;20.30;72.22;99817.25;311385;31;2132;-77
2023/09/27 00:45:52;;;;;;;388.02;288.33;;;;;;;20.32;72.34;99825.94;310601;31;1387;-77
2023/09/27 00:46:04;;;;;;;386.65;294.08;;;;;;;20.32;71.87;99820.63;307421;32;829;-78
2023/09/27 00:46:15;;;;;;;383.73;292.67;;;;;;;20.32;72.10;99825.94;308846;31;3037;-78
2023/09/27 00:46:26;;;;;;;380.73;294.67;;;;;;;20.32;72.17;99820.63;305408;31;3475;-78
2023/09/27 00:46:36;;;;;;;383.60;294.63;;;;;;;20.32;72.20;99823.28;303253;32;801;-78
2023/09/27 00:46:47;;;;;;;384.17;290.30;;;;;;;20.33;72.65;99822.31;302796;32;2917;-78
2023/09/27 00:46:57;;;;;;;383.03;283.67;;;;;;;20.35;72.30;99817.72;305291;31;2912;-77
2023/09/27 00:47:08;;;;;;;377.30;279.20;;;;;;;20.35;72.30;99820.41;307397;32;3131;-77
2023/09/27 00:47:18;;;;;;;379.30;283.95;;;;;;;20.37;72.43;99826.41;308552;32;1410;-77
2023/09/27 00:47:28;;;;;;;378.30;286.00;;;;;;;20.37;72.54;99819.28;305594;32;2623;-77
2023/09/27 00:47:39;;;;;;;381.00;292.10;;;;;;;20.37;71.85;99818.44;301292;32;2250;-77
2023/09/27 00:47:50;;;;;;;380.47;289.80;;;;;;;20.38;72.63;99820.16;299102;33;904;-77
2023/09/27 00:48:00;;;;;;;384.08;292.08;;;;;;;20.39;72.09;99821.84;301160;32;2781;-77
2023/09/27 00:48:10;;;;;;;385.93;293.10;;;;;;;20.38;72.35;99822.81;301575;32;3635;-77
2023/09/27 00:48:21;;;;;;;386.42;298.35;;;;;;;20.39;72.35;99822.69;303192;32;1427;-77
2023/09/27 00:48:32;;;;;;;385.80;296.47;;;;;;;20.39;72.35;99816.53;300717;32;4419;-77
2023/09/27 00:48:42;;;;;;;383.25;293.48;;;;;;;20.39;72.30;99821.84;299374;32;4863;-77
2023/09/27 00:48:52;;;;;;;383.40;292.67;;;;;;;20.39;72.01;99824.50;295681;33;4745;-77
2023/09/27 00:49:03;;;;;;;384.83;296.67;;;;;;;20.38;72.60;99821.00;296067;33;937;-77
2023/09/27 00:49:13;;;;;;;385.15;297.65;;;;;;;20.35;72.42;99823.91;296009;33;3898;-77
2023/09/27 00:49:24;;;;;;;385.07;296.40;;;;;;;20.32;72.57;99826.78;295183;33;4320;-77
2023/09/27 00:49:34;;;;;;;383.30;294.07;;;;;;;20.32;72.33;99812.66;292139;33;1330;-77
2023/09/27 00:49:44;;;;;;;382.55;295.80;;;;;;;20.30;72.48;99826.06;292816;33;3671;-77
2023/09/27 00:49:55;;;;;;;382.70;299.77;;;;;;;20.27;72.93;99819.16;290831;33;3032;-77
2023/09/27 00:50:11;;;;;;;382.00;298.02;;;;;;;20.22;73.17;99826.66;292030;33;930;-77
2023/09/27 00:50:21;;;;;;;380.60;295.25;;;;;;;20.24;72.78;99824.72;286067;34;5083;-77
2023/09/27 00:50:32;;;;;;;381.00;297.43;;;;;;;20.22;72.82;99826.66;285466;34;1249;-77
2023/09/27 00:50:42;;;;;;;384.60;296.17;;;;;;;20.21;73.22;99826.78;282964;34;7028;-77
2023/09/27 00:50:53;;;;;;;384.73;296.93;;;;;;;20.20;73.01;99825.06;280479;34;6962;-78
2023/09/27 00:51:04;;;;;;;386.38;297.25;;;;;;;20.20;72.99;99817.94;279769;35;1412;-78
2023/09/27 00:51:14;;;;;;;384.83;294.88;;;;;;;20.20;73.01;99820.63;280704;34;6733;-78
2023/09/27 00:51:25;;;;;;;386.23;294.93;;;;;;;20.17;73.20;99820.84;279140;35;5505;-78
2023/09/27 00:51:35;;;;;;;386.38;295.90;;;;;;;20.19;73.08;99816.25;275433;35;2766;-78
2023/09/27 00:51:46;;;;;;;387.30;297.70;;;;;;;20.19;73.02;99826.88;273367;35;5800;-78
2023/09/27 00:51:57;;;;;;;384.23;292.60;;;;;;;20.20;73.38;99817.94;275138;35;5069;-78
2023/09/27 00:52:07;;;;;;;386.27;296.60;;;;;;;20.19;73.10;99824.22;274670;35;5125;-78
2023/09/27 00:52:18;;;;;;;387.45;295.65;;;;;;;20.23;73.09;99828.34;277712;35;1246;-78
2023/09/27 00:52:29;;;;;;;390.40;302.23;;;;;;;20.25;72.98;99829.06;275609;35;6153;-78
2023/09/27 00:52:40;;;;;;;384.30;293.95;;;;;;;20.24;73.16;99824.72;272505;35;7545;-78
2023/09/27 00:52:50;;;;;;;384.67;296.15;;;;;;;20.24;73.37;99819.41;271574;36;942;-78
2023/09/27 00:54:46;;;;;;;368.87;270.22;;;;;;;20.17;73.29;99823.50;2502803;27;20281;-78
2023/09/27 00:54:57;;;;;;;379.10;286.40;;;;;;;20.17;73.44;99820.00;352158;28;1214;-78
2023/09/27 00:55:11;;;;;;;377.48;287.88;;;;;;;20.16;73.23;99824.47;348969;28;811;-78
2023/09/27 00:55:21;;;;;;;375.48;280.98;;;;;;;20.15;73.31;99822.78;348957;28;929;-78
2023/09/27 00:55:32;;;;;;;375.80;280.20;;;;;;;20.16;73.23;99815.66;353122;27;1178;-78
2023/09/27 00:55:42;;;;;;;380.42;286.05;;;;;;;20.19;73.15;99820.72;346127;28;1216;-78
2023/09/27 00:55:52;;;;;;;382.00;290.43;;;;;;;20.19;73.33;99826.03;347295;28;2884;-78
2023/09/27 00:56:03;;;;;;;385.48;296.80;;;;;;;20.20;73.04;99828.59;347094;28;5081;-78
2023/09/27 00:56:13;;;;;;;381.10;290.50;;;;;;;20.20;73.07;99822.41;349788;28;3227;-78